sensor_id;sensor_type;location;lat;lon;timestamp;pressure;altitude;pressure_sealevel;temperature;humidity
62697;BME280;48761;42.680;23.312;2022-12-07T00:01:23;94840.09;;;5.91;82.22
62697;BME280;48761;42.680;23.312;2022-12-07T00:03:51;94837.28;;;6.12;81.56
62697;BME280;48761;42.680;23.312;2022-12-07T00:06:18;94837.84;;;6.19;81.09
62697;BME280;48761;42.680;23.312;2022-12-07T00:08:44;94832.78;;;5.97;81.51
62697;BME280;48761;42.680;23.312;2022-12-07T00:11:19;94825.44;;;5.50;83.45
62697;BME280;48761;42.680;23.312;2022-12-07T00:13:46;94842.91;;;5.70;83.48
62697;BME280;48761;42.680;23.312;2022-12-07T00:16:16;94831.59;;;5.68;83.13
62697;BME280;48761;42.680;23.312;2022-12-07T00:18:44;94826.94;;;5.74;83.59
62697;BME280;48761;42.680;23.312;2022-12-07T00:21:16;94824.50;;;5.51;84.18
62697;BME280;48761;42.680;23.312;2022-12-07T00:23:43;94827.69;;;5.58;84.04
62697;BME280;48761;42.680;23.312;2022-12-07T00:26:15;94838.25;;;5.58;84.01
62697;BME280;48761;42.680;23.312;2022-12-07T00:28:45;94831.59;;;5.51;84.42
62697;BME280;48761;42.680;23.312;2022-12-07T00:31:12;94833.44;;;5.48;84.40
62697;BME280;48761;42.680;23.312;2022-12-07T00:33:38;94838.88;;;5.45;84.57
62697;BME280;48761;42.680;23.312;2022-12-07T00:36:07;94842.97;;;5.51;84.52
62697;BME280;48761;42.680;23.312;2022-12-07T00:38:35;94835.47;;;5.43;84.72
62697;BME280;48761;42.680;23.312;2022-12-07T00:41:04;94838.38;;;5.19;85.44
62697;BME280;48761;42.680;23.312;2022-12-07T00:43:31;94837.50;;;5.19;85.79
62697;BME280;48761;42.680;23.312;2022-12-07T00:45:57;94837.75;;;5.32;85.60
62697;BME280;48761;42.680;23.312;2022-12-07T00:48:24;94836.75;;;5.34;84.95
62697;BME280;48761;42.680;23.312;2022-12-07T00:50:50;94829.56;;;5.38;85.17
62697;BME280;48761;42.680;23.312;2022-12-07T00:53:17;94784.13;;;5.15;84.89
62697;BME280;48761;42.680;23.312;2022-12-07T00:55:43;94834.38;;;5.65;84.43
62697;BME280;48761;42.680;23.312;2022-12-07T00:58:10;94805.50;;;5.62;84.06
62697;BME280;48761;42.680;23.312;2022-12-07T01:00:38;94809.53;;;5.69;83.83
62697;BME280;48761;42.680;23.312;2022-12-07T01:03:05;94827.81;;;5.90;83.21
62697;BME280;48761;42.680;23.312;2022-12-07T01:05:32;94791.38;;;5.81;82.71
62697;BME280;48761;42.680;23.312;2022-12-07T01:07:58;94827.50;;;5.97;82.69
62697;BME280;48761;42.680;23.312;2022-12-07T01:10:24;94820.78;;;6.09;81.94
62697;BME280;48761;42.680;23.312;2022-12-07T01:12:50;94814.75;;;6.05;82.40
62697;BME280;48761;42.680;23.312;2022-12-07T01:15:16;94780.97;;;5.78;82.37
62697;BME280;48761;42.680;23.312;2022-12-07T01:17:42;94791.91;;;5.88;82.61
62697;BME280;48761;42.680;23.312;2022-12-07T01:20:08;94817.88;;;6.13;82.44
62697;BME280;48761;42.680;23.312;2022-12-07T01:22:41;94811.34;;;6.21;82.26
62697;BME280;48761;42.680;23.312;2022-12-07T01:25:08;94807.44;;;5.94;83.09
62697;BME280;48761;42.680;23.312;2022-12-07T01:27:35;94766.28;;;5.56;83.59
62697;BME280;48761;42.680;23.312;2022-12-07T01:30:03;94805.88;;;5.90;83.59
62697;BME280;48761;42.680;23.312;2022-12-07T01:32:29;94800.84;;;5.67;83.74
62697;BME280;48761;42.680;23.312;2022-12-07T01:34:55;94801.34;;;5.58;84.56
62697;BME280;48761;42.680;23.312;2022-12-07T01:37:21;94791.25;;;5.48;84.76
62697;BME280;48761;42.680;23.312;2022-12-07T01:39:51;94804.88;;;5.57;84.91
62697;BME280;48761;42.680;23.312;2022-12-07T01:42:18;94796.91;;;5.58;84.63
62697;BME280;48761;42.680;23.312;2022-12-07T01:47:42;94781.63;;;5.65;84.00
62697;BME280;48761;42.680;23.312;2022-12-07T01:50:09;94807.59;;;5.91;83.72
62697;BME280;48761;42.680;23.312;2022-12-07T01:52:36;94798.31;;;6.00;83.34
62697;BME280;48761;42.680;23.312;2022-12-07T01:55:07;94800.78;;;6.03;83.28
62697;BME280;48761;42.680;23.312;2022-12-07T01:57:36;94802.34;;;6.07;83.05
62697;BME280;48761;42.680;23.312;2022-12-07T02:00:03;94768.91;;;6.08;82.04
62697;BME280;48761;42.680;23.312;2022-12-07T02:02:33;94737.41;;;5.87;82.03
62697;BME280;48761;42.680;23.312;2022-12-07T02:05:02;94787.59;;;6.21;82.68
62697;BME280;48761;42.680;23.312;2022-12-07T02:07:29;94787.84;;;6.16;82.55
62697;BME280;48761;42.680;23.312;2022-12-07T02:09:56;94789.78;;;6.12;82.63
62697;BME280;48761;42.680;23.312;2022-12-07T02:12:23;94786.69;;;6.04;82.83
62697;BME280;48761;42.680;23.312;2022-12-07T02:14:50;94762.59;;;5.76;83.27
62697;BME280;48761;42.680;23.312;2022-12-07T02:29:17;94784.06;;;5.86;84.44
62697;BME280;48761;42.680;23.312;2022-12-07T02:31:59;94771.00;;;6.01;84.07
62697;BME280;48761;42.680;23.312;2022-12-07T02:34:55;94776.13;;;6.04;83.58
62697;BME280;48761;42.680;23.312;2022-12-07T02:37:55;94778.34;;;6.12;83.42
62697;BME280;48761;42.680;23.312;2022-12-07T02:40:29;94780.28;;;6.26;82.78
62697;BME280;48761;42.680;23.312;2022-12-07T02:43:26;94780.78;;;6.16;82.97
62697;BME280;48761;42.680;23.312;2022-12-07T02:45:52;94778.97;;;6.17;82.69
62697;BME280;48761;42.680;23.312;2022-12-07T02:48:20;94782.03;;;6.09;82.93
62697;BME280;48761;42.680;23.312;2022-12-07T02:50:52;94775.66;;;6.13;82.97
62697;BME280;48761;42.680;23.312;2022-12-07T02:53:42;94776.56;;;6.12;82.88
62697;BME280;48761;42.680;23.312;2022-12-07T03:07:48;94756.69;;;5.89;83.27
62697;BME280;48761;42.680;23.312;2022-12-07T03:13:22;94749.88;;;6.01;83.04
62697;BME280;48761;42.680;23.312;2022-12-07T03:18:42;94748.72;;;5.72;83.87
62697;BME280;48761;42.680;23.312;2022-12-07T03:21:14;94752.06;;;5.76;84.17
62697;BME280;48761;42.680;23.312;2022-12-07T03:23:46;94731.03;;;5.57;84.11
62697;BME280;48761;42.680;23.312;2022-12-07T03:26:16;94742.97;;;5.64;84.27
62697;BME280;48761;42.680;23.312;2022-12-07T03:28:50;94737.69;;;5.64;84.10
62697;BME280;48761;42.680;23.312;2022-12-07T03:31:37;94759.88;;;5.78;83.97
62697;BME280;48761;42.680;23.312;2022-12-07T03:34:14;94758.72;;;5.83;83.77
62697;BME280;48761;42.680;23.312;2022-12-07T03:36:51;94742.34;;;5.77;83.71
62697;BME280;48761;42.680;23.312;2022-12-07T03:41:54;94750.38;;;5.91;83.31
62697;BME280;48761;42.680;23.312;2022-12-07T03:44:22;94754.25;;;5.84;83.32
62697;BME280;48761;42.680;23.312;2022-12-07T03:47:15;94760.94;;;5.91;83.19
62697;BME280;48761;42.680;23.312;2022-12-07T03:49:53;94741.88;;;5.86;83.14
62697;BME280;48761;42.680;23.312;2022-12-07T03:57:40;94753.69;;;5.79;83.35
62697;BME280;48761;42.680;23.312;2022-12-07T04:00:09;94739.41;;;5.65;83.61
62697;BME280;48761;42.680;23.312;2022-12-07T04:02:36;94749.56;;;5.73;83.90
62697;BME280;48761;42.680;23.312;2022-12-07T04:05:02;94756.31;;;5.79;83.82
62697;BME280;48761;42.680;23.312;2022-12-07T04:07:28;94727.72;;;5.71;83.73
62697;BME280;48761;42.680;23.312;2022-12-07T04:09:54;94739.63;;;5.78;83.43
62697;BME280;48761;42.680;23.312;2022-12-07T04:12:21;94745.88;;;5.93;83.31
62697;BME280;48761;42.680;23.312;2022-12-07T04:14:47;94743.59;;;5.69;84.04
62697;BME280;48761;42.680;23.312;2022-12-07T04:17:13;94720.38;;;5.42;84.85
62697;BME280;48761;42.680;23.312;2022-12-07T04:19:40;94740.28;;;5.66;84.52
62697;BME280;48761;42.680;23.312;2022-12-07T04:22:06;94749.63;;;5.71;84.54
62697;BME280;48761;42.680;23.312;2022-12-07T04:24:32;94742.19;;;5.80;83.67
62697;BME280;48761;42.680;23.312;2022-12-07T04:26:58;94711.31;;;5.48;83.81
62697;BME280;48761;42.680;23.312;2022-12-07T04:29:25;94749.03;;;5.66;84.06
62697;BME280;48761;42.680;23.312;2022-12-07T04:31:51;94744.53;;;5.68;83.93
62697;BME280;48761;42.680;23.312;2022-12-07T04:34:18;94754.25;;;5.84;83.70
62697;BME280;48761;42.680;23.312;2022-12-07T04:36:44;94750.34;;;5.75;83.42
62697;BME280;48761;42.680;23.312;2022-12-07T04:39:24;94741.81;;;5.70;83.58
62697;BME280;48761;42.680;23.312;2022-12-07T04:41:51;94751.34;;;5.72;83.54
62697;BME280;48761;42.680;23.312;2022-12-07T04:44:18;94750.09;;;5.80;83.33
62697;BME280;48761;42.680;23.312;2022-12-07T04:46:44;94764.22;;;5.79;83.50
62697;BME280;48761;42.680;23.312;2022-12-07T04:49:11;94764.44;;;5.74;83.34
62697;BME280;48761;42.680;23.312;2022-12-07T04:51:37;94746.56;;;5.63;83.41
62697;BME280;48761;42.680;23.312;2022-12-07T04:54:04;94748.88;;;5.69;83.09
62697;BME280;48761;42.680;23.312;2022-12-07T04:56:30;94745.63;;;5.64;83.01
62697;BME280;48761;42.680;23.312;2022-12-07T04:58:56;94758.16;;;5.77;82.83
62697;BME280;48761;42.680;23.312;2022-12-07T05:01:23;94754.59;;;5.78;82.83
62697;BME280;48761;42.680;23.312;2022-12-07T05:03:50;94757.84;;;5.83;82.87
62697;BME280;48761;42.680;23.312;2022-12-07T05:06:16;94762.22;;;5.66;82.96
62697;BME280;48761;42.680;23.312;2022-12-07T05:08:42;94723.00;;;5.42;83.09
62697;BME280;48761;42.680;23.312;2022-12-07T05:11:09;94760.06;;;5.57;83.44
62697;BME280;48761;42.680;23.312;2022-12-07T05:13:36;94763.66;;;5.56;83.64
62697;BME280;48761;42.680;23.312;2022-12-07T05:16:02;94752.91;;;5.59;83.59
62697;BME280;48761;42.680;23.312;2022-12-07T05:18:28;94748.09;;;5.67;83.55
62697;BME280;48761;42.680;23.312;2022-12-07T05:20:54;94757.72;;;5.68;83.34
62697;BME280;48761;42.680;23.312;2022-12-07T05:23:20;94760.03;;;5.75;83.15
62697;BME280;48761;42.680;23.312;2022-12-07T05:25:46;94760.97;;;5.74;83.14
62697;BME280;48761;42.680;23.312;2022-12-07T05:28:12;94761.91;;;5.72;83.08
62697;BME280;48761;42.680;23.312;2022-12-07T05:30:38;94755.09;;;5.68;83.24
62697;BME280;48761;42.680;23.312;2022-12-07T05:33:04;94760.19;;;5.71;83.28
62697;BME280;48761;42.680;23.312;2022-12-07T05:35:30;94756.94;;;5.66;83.61
62697;BME280;48761;42.680;23.312;2022-12-07T05:37:56;94745.91;;;5.76;83.22
62697;BME280;48761;42.680;23.312;2022-12-07T05:40:22;94737.88;;;5.61;83.39
62697;BME280;48761;42.680;23.312;2022-12-07T05:42:48;94752.16;;;5.39;84.82
62697;BME280;48761;42.680;23.312;2022-12-07T05:45:14;94753.75;;;5.25;85.76
62697;BME280;48761;42.680;23.312;2022-12-07T05:47:40;94713.84;;;4.78;86.99
62697;BME280;48761;42.680;23.312;2022-12-07T05:50:07;94730.25;;;4.85;87.62
62697;BME280;48761;42.680;23.312;2022-12-07T05:52:33;94739.94;;;5.02;87.35
62697;BME280;48761;42.680;23.312;2022-12-07T05:54:58;94701.31;;;4.84;87.54
62697;BME280;48761;42.680;23.312;2022-12-07T05:57:24;94747.22;;;5.15;87.14
62697;BME280;48761;42.680;23.312;2022-12-07T05:59:50;94736.81;;;5.12;87.01
62697;BME280;48761;42.680;23.312;2022-12-07T06:02:16;94738.69;;;5.27;86.45
62697;BME280;48761;42.680;23.312;2022-12-07T06:04:45;94742.94;;;5.48;88.56
62697;BME280;48761;42.680;23.312;2022-12-07T06:07:13;94742.34;;;5.25;86.72
62697;BME280;48761;42.680;23.312;2022-12-07T06:09:39;94738.97;;;5.03;86.96
62697;BME280;48761;42.680;23.312;2022-12-07T06:12:06;94745.81;;;4.90;87.57
62697;BME280;48761;42.680;23.312;2022-12-07T06:14:32;94751.06;;;4.72;87.92
62697;BME280;48761;42.680;23.312;2022-12-07T06:16:58;94747.31;;;4.76;88.15
62697;BME280;48761;42.680;23.312;2022-12-07T06:19:24;94756.56;;;4.85;87.60
62697;BME280;48761;42.680;23.312;2022-12-07T06:21:51;94755.13;;;4.97;87.48
62697;BME280;48761;42.680;23.312;2022-12-07T06:27:01;94755.03;;;5.34;86.86
62697;BME280;48761;42.680;23.312;2022-12-07T06:29:27;94755.88;;;5.53;85.38
62697;BME280;48761;42.680;23.312;2022-12-07T06:31:53;94739.34;;;5.49;84.54
62697;BME280;48761;42.680;23.312;2022-12-07T06:34:21;94759.00;;;5.61;84.42
62697;BME280;48761;42.680;23.312;2022-12-07T06:36:47;94756.94;;;5.66;84.21
62697;BME280;48761;42.680;23.312;2022-12-07T06:39:13;94769.19;;;5.67;83.66
62697;BME280;48761;42.680;23.312;2022-12-07T06:41:39;94764.91;;;5.48;84.01
62697;BME280;48761;42.680;23.312;2022-12-07T06:44:05;94778.38;;;5.42;84.82
62697;BME280;48761;42.680;23.312;2022-12-07T06:46:32;94780.91;;;5.44;85.22
62697;BME280;48761;42.680;23.312;2022-12-07T06:48:58;94774.19;;;5.56;84.81
62697;BME280;48761;42.680;23.312;2022-12-07T06:51:24;94779.25;;;5.43;85.04
62697;BME280;48761;42.680;23.312;2022-12-07T06:53:50;94764.97;;;5.29;85.59
62697;BME280;48761;42.680;23.312;2022-12-07T06:56:16;94758.44;;;5.19;85.78
62697;BME280;48761;42.680;23.312;2022-12-07T06:58:42;94777.50;;;5.24;86.35
62697;BME280;48761;42.680;23.312;2022-12-07T07:01:12;94743.00;;;5.11;86.13
62697;BME280;48761;42.680;23.312;2022-12-07T07:03:38;94770.09;;;5.32;85.76
62697;BME280;48761;42.680;23.312;2022-12-07T07:06:05;94773.56;;;5.51;85.50
62697;BME280;48761;42.680;23.312;2022-12-07T07:08:32;94768.75;;;5.41;85.07
62697;BME280;48761;42.680;23.312;2022-12-07T07:10:58;94766.19;;;5.57;85.09
62697;BME280;48761;42.680;23.312;2022-12-07T07:13:24;94770.91;;;5.68;84.69
62697;BME280;48761;42.680;23.312;2022-12-07T07:15:49;94777.72;;;5.72;85.09
62697;BME280;48761;42.680;23.312;2022-12-07T07:18:16;94775.72;;;5.78;84.38
62697;BME280;48761;42.680;23.312;2022-12-07T07:20:42;94764.25;;;5.61;84.86
62697;BME280;48761;42.680;23.312;2022-12-07T07:23:08;94772.75;;;5.66;85.04
62697;BME280;48761;42.680;23.312;2022-12-07T07:25:34;94768.03;;;5.73;84.97
62697;BME280;48761;42.680;23.312;2022-12-07T07:28:00;94775.09;;;5.72;84.77
62697;BME280;48761;42.680;23.312;2022-12-07T07:30:26;94779.25;;;5.77;84.50
62697;BME280;48761;42.680;23.312;2022-12-07T07:32:57;94780.22;;;5.76;84.63
62697;BME280;48761;42.680;23.312;2022-12-07T07:35:24;94769.06;;;5.87;84.75
62697;BME280;48761;42.680;23.312;2022-12-07T07:37:51;94775.91;;;5.91;84.36
62697;BME280;48761;42.680;23.312;2022-12-07T07:40:17;94759.38;;;5.87;84.06
62697;BME280;48761;42.680;23.312;2022-12-07T07:42:43;94769.44;;;5.97;84.16
62697;BME280;48761;42.680;23.312;2022-12-07T07:45:09;94777.34;;;6.14;83.80
62697;BME280;48761;42.680;23.312;2022-12-07T07:47:35;94786.81;;;6.35;82.79
62697;BME280;48761;42.680;23.312;2022-12-07T07:50:01;94783.59;;;6.46;82.25
62697;BME280;48761;42.680;23.312;2022-12-07T07:52:27;94768.19;;;6.22;81.76
62697;BME280;48761;42.680;23.312;2022-12-07T07:54:53;94782.63;;;6.14;82.46
62697;BME280;48761;42.680;23.312;2022-12-07T07:57:19;94780.44;;;6.23;82.73
62697;BME280;48761;42.680;23.312;2022-12-07T07:59:45;94772.94;;;6.31;82.38
62697;BME280;48761;42.680;23.312;2022-12-07T08:02:16;94770.06;;;6.52;81.62
62697;BME280;48761;42.680;23.312;2022-12-07T08:04:43;94777.56;;;6.76;80.70
62697;BME280;48761;42.680;23.312;2022-12-07T08:07:10;94785.38;;;6.78;80.79
62697;BME280;48761;42.680;23.312;2022-12-07T08:09:36;94788.13;;;6.76;80.84
62697;BME280;48761;42.680;23.312;2022-12-07T08:12:02;94785.38;;;6.94;79.68
62697;BME280;48761;42.680;23.312;2022-12-07T08:14:33;94767.91;;;6.75;80.43
62697;BME280;48761;42.680;23.312;2022-12-07T08:17:02;94770.22;;;6.65;79.71
62697;BME280;48761;42.680;23.312;2022-12-07T08:19:28;94777.91;;;6.54;80.71
62697;BME280;48761;42.680;23.312;2022-12-07T08:21:55;94776.69;;;6.43;80.96
62697;BME280;48761;42.680;23.312;2022-12-07T08:24:21;94773.56;;;6.36;80.92
62697;BME280;48761;42.680;23.312;2022-12-07T08:26:47;94737.16;;;6.25;81.22
62697;BME280;48761;42.680;23.312;2022-12-07T08:29:13;94768.94;;;6.40;81.54
62697;BME280;48761;42.680;23.312;2022-12-07T08:31:39;94775.09;;;6.24;81.76
62697;BME280;48761;42.680;23.312;2022-12-07T08:34:05;94775.50;;;6.16;81.85
62697;BME280;48761;42.680;23.312;2022-12-07T08:36:31;94769.88;;;6.23;82.16
62697;BME280;48761;42.680;23.312;2022-12-07T08:38:56;94782.31;;;6.21;82.08
62697;BME280;48761;42.680;23.312;2022-12-07T08:41:23;94776.41;;;6.15;82.43
62697;BME280;48761;42.680;23.312;2022-12-07T08:43:51;94772.91;;;6.15;82.55
62697;BME280;48761;42.680;23.312;2022-12-07T08:46:28;94772.13;;;6.47;82.20
62697;BME280;48761;42.680;23.312;2022-12-07T08:49:01;94761.97;;;6.55;81.08
62697;BME280;48761;42.680;23.312;2022-12-07T08:51:27;94760.19;;;6.72;80.60
62697;BME280;48761;42.680;23.312;2022-12-07T08:53:55;94758.41;;;6.56;80.91
62697;BME280;48761;42.680;23.312;2022-12-07T08:56:22;94745.69;;;6.63;80.68
62697;BME280;48761;42.680;23.312;2022-12-07T08:58:48;94729.56;;;6.68;80.10
62697;BME280;48761;42.680;23.312;2022-12-07T09:01:14;94758.94;;;6.94;79.51
62697;BME280;48761;42.680;23.312;2022-12-07T09:03:40;94753.66;;;6.94;79.02
62697;BME280;48761;42.680;23.312;2022-12-07T09:06:07;94750.00;;;6.97;78.52
62697;BME280;48761;42.680;23.312;2022-12-07T09:08:37;94737.84;;;6.61;79.56
62697;BME280;48761;42.680;23.312;2022-12-07T09:11:03;94744.94;;;6.61;79.82
62697;BME280;48761;42.680;23.312;2022-12-07T09:13:30;94746.53;;;6.64;80.22
62697;BME280;48761;42.680;23.312;2022-12-07T09:15:55;94733.00;;;6.54;79.93
62697;BME280;48761;42.680;23.312;2022-12-07T09:18:21;94740.22;;;6.50;80.23
62697;BME280;48761;42.680;23.312;2022-12-07T09:20:47;94725.94;;;6.54;80.51
62697;BME280;48761;42.680;23.312;2022-12-07T09:23:14;94710.25;;;6.51;79.93
62697;BME280;48761;42.680;23.312;2022-12-07T09:25:39;94737.81;;;6.94;79.46
62697;BME280;48761;42.680;23.312;2022-12-07T09:28:05;94731.97;;;7.03;78.64
62697;BME280;48761;42.680;23.312;2022-12-07T09:30:32;94741.47;;;7.08;78.58
62697;BME280;48761;42.680;23.312;2022-12-07T09:32:58;94720.09;;;7.11;78.86
62697;BME280;48761;42.680;23.312;2022-12-07T09:35:24;94712.19;;;7.11;78.33
62697;BME280;48761;42.680;23.312;2022-12-07T09:37:50;94704.38;;;6.93;78.69
62697;BME280;48761;42.680;23.312;2022-12-07T09:40:18;94712.72;;;7.01;78.93
62697;BME280;48761;42.680;23.312;2022-12-07T09:42:48;94704.91;;;6.83;79.02
62697;BME280;48761;42.680;23.312;2022-12-07T09:45:35;94706.88;;;7.11;78.71
62697;BME280;48761;42.680;23.312;2022-12-07T09:48:03;94706.97;;;6.78;79.47
62697;BME280;48761;42.680;23.312;2022-12-07T09:50:30;94707.56;;;6.83;79.60
62697;BME280;48761;42.680;23.312;2022-12-07T09:53:07;94708.69;;;6.79;79.91
62697;BME280;48761;42.680;23.312;2022-12-07T09:55:41;94703.66;;;7.05;79.53
62697;BME280;48761;42.680;23.312;2022-12-07T09:58:29;94695.84;;;7.04;78.81
62697;BME280;48761;42.680;23.312;2022-12-07T10:00:57;94677.31;;;6.89;79.36
62697;BME280;48761;42.680;23.312;2022-12-07T10:03:27;94696.91;;;7.16;79.07
62697;BME280;48761;42.680;23.312;2022-12-07T10:05:53;94689.56;;;7.21;78.65
62697;BME280;48761;42.680;23.312;2022-12-07T10:08:19;94675.75;;;7.16;78.67
62697;BME280;48761;42.680;23.312;2022-12-07T10:10:51;94671.59;;;7.12;78.99
62697;BME280;48761;42.680;23.312;2022-12-07T10:13:21;94670.47;;;7.31;78.32
62697;BME280;48761;42.680;23.312;2022-12-07T10:15:56;94681.00;;;7.47;77.85
62697;BME280;48761;42.680;23.312;2022-12-07T10:18:37;94673.81;;;7.63;77.25
62697;BME280;48761;42.680;23.312;2022-12-07T10:21:15;94664.28;;;7.76;76.60
62697;BME280;48761;42.680;23.312;2022-12-07T10:24:01;94668.44;;;7.65;76.40
62697;BME280;48761;42.680;23.312;2022-12-07T10:26:35;94663.53;;;7.59;76.45
62697;BME280;48761;42.680;23.312;2022-12-07T10:31:39;94645.22;;;7.70;76.94
62697;BME280;48761;42.680;23.312;2022-12-07T10:34:21;94645.00;;;7.44;77.69
62697;BME280;48761;42.680;23.312;2022-12-07T10:36:47;94650.28;;;7.44;77.29
62697;BME280;48761;42.680;23.312;2022-12-07T10:39:16;94648.28;;;7.33;77.92
62697;BME280;48761;42.680;23.312;2022-12-07T10:42:00;94636.69;;;7.36;77.76
62697;BME280;48761;42.680;23.312;2022-12-07T10:44:28;94632.06;;;7.25;78.00
62697;BME280;48761;42.680;23.312;2022-12-07T10:47:31;94638.50;;;7.50;77.45
62697;BME280;48761;42.680;23.312;2022-12-07T10:50:07;94636.03;;;7.61;76.83
62697;BME280;48761;42.680;23.312;2022-12-07T10:58:31;94615.13;;;7.86;75.74
62697;BME280;48761;42.680;23.312;2022-12-07T11:01:32;94612.13;;;7.78;75.80
62697;BME280;48761;42.680;23.312;2022-12-07T11:04:35;94596.28;;;7.63;76.35
62697;BME280;48761;42.680;23.312;2022-12-07T11:07:13;94597.38;;;7.59;76.16
62697;BME280;48761;42.680;23.312;2022-12-07T11:09:49;94605.34;;;7.73;76.43
62697;BME280;48761;42.680;23.312;2022-12-07T11:12:40;94604.06;;;7.79;75.71
62697;BME280;48761;42.680;23.312;2022-12-07T11:16:02;94597.41;;;7.73;75.38
62697;BME280;48761;42.680;23.312;2022-12-07T11:18:36;94600.00;;;7.88;75.35
62697;BME280;48761;42.680;23.312;2022-12-07T11:24:10;94596.41;;;7.89;75.07
62697;BME280;48761;42.680;23.312;2022-12-07T11:35:16;94565.31;;;7.93;75.24
62697;BME280;48761;42.680;23.312;2022-12-07T11:37:46;94560.22;;;8.17;74.79
62697;BME280;48761;42.680;23.312;2022-12-07T11:40:29;94569.06;;;8.31;74.33
62697;BME280;48761;42.680;23.312;2022-12-07T11:43:18;94566.84;;;8.10;73.91
62697;BME280;48761;42.680;23.312;2022-12-07T11:45:52;94518.00;;;7.73;74.56
62697;BME280;48761;42.680;23.312;2022-12-07T11:48:28;94564.88;;;8.14;74.08
62697;BME280;48761;42.680;23.312;2022-12-07T11:50:57;94569.63;;;8.09;73.97
62697;BME280;48761;42.680;23.312;2022-12-07T11:53:29;94560.31;;;8.16;73.67
62697;BME280;48761;42.680;23.312;2022-12-07T11:56:13;94561.63;;;8.23;73.54
62697;BME280;48761;42.680;23.312;2022-12-07T12:01:11;94560.16;;;8.32;73.08
62697;BME280;48761;42.680;23.312;2022-12-07T12:03:49;94535.31;;;8.20;73.14
62697;BME280;48761;42.680;23.312;2022-12-07T12:06:15;94536.84;;;8.37;72.63
62697;BME280;48761;42.680;23.312;2022-12-07T12:12:07;94535.75;;;8.27;73.27
62697;BME280;48761;42.680;23.312;2022-12-07T12:20:29;94530.59;;;8.66;71.94
62697;BME280;48761;42.680;23.312;2022-12-07T12:23:17;94532.09;;;8.83;71.85
62697;BME280;48761;42.680;23.312;2022-12-07T12:25:45;94523.28;;;8.96;71.21
62697;BME280;48761;42.680;23.312;2022-12-07T12:28:23;94503.13;;;8.80;71.27
62697;BME280;48761;42.680;23.312;2022-12-07T12:33:37;94515.34;;;8.83;71.53
62697;BME280;48761;42.680;23.312;2022-12-07T12:36:24;94511.94;;;8.81;71.60
62697;BME280;48761;42.680;23.312;2022-12-07T12:46:54;94498.56;;;8.82;72.25
62697;BME280;48761;42.680;23.312;2022-12-07T12:51:50;94495.50;;;8.89;72.29
62697;BME280;48761;42.680;23.312;2022-12-07T12:59:25;94503.56;;;9.00;71.31
62697;BME280;48761;42.680;23.312;2022-12-07T13:15:45;94506.44;;;8.97;71.48
62697;BME280;48761;42.680;23.312;2022-12-07T13:23:52;94497.63;;;9.10;71.18
62697;BME280;48761;42.680;23.312;2022-12-07T13:29:17;94496.03;;;8.94;72.08
62697;BME280;48761;42.680;23.312;2022-12-07T13:32:17;94498.50;;;8.97;71.90
62697;BME280;48761;42.680;23.312;2022-12-07T13:37:18;94497.53;;;8.98;72.13
62697;BME280;48761;42.680;23.312;2022-12-07T13:39:56;94486.28;;;9.07;72.33
62697;BME280;48761;42.680;23.312;2022-12-07T13:42:26;94490.31;;;9.00;72.03
62697;BME280;48761;42.680;23.312;2022-12-07T13:44:53;94486.28;;;9.07;72.42
62697;BME280;48761;42.680;23.312;2022-12-07T13:49:56;94487.25;;;9.06;72.13
62697;BME280;48761;42.680;23.312;2022-12-07T13:52:25;94489.28;;;8.90;72.88
62697;BME280;48761;42.680;23.312;2022-12-07T13:57:31;94463.38;;;8.80;73.31
62697;BME280;48761;42.680;23.312;2022-12-07T13:59:58;94477.56;;;9.05;72.96
62697;BME280;48761;42.680;23.312;2022-12-07T14:02:30;94474.19;;;9.03;73.38
62697;BME280;48761;42.680;23.312;2022-12-07T14:05:24;94468.06;;;8.90;73.25
62697;BME280;48761;42.680;23.312;2022-12-07T14:08:00;94482.25;;;9.02;73.39
62697;BME280;48761;42.680;23.312;2022-12-07T14:10:31;94479.28;;;9.06;72.97
62697;BME280;48761;42.680;23.312;2022-12-07T14:12:58;94484.59;;;9.06;72.89
62697;BME280;48761;42.680;23.312;2022-12-07T14:15:34;94463.25;;;8.95;72.84
62697;BME280;48761;42.680;23.312;2022-12-07T14:18:01;94484.78;;;9.16;72.95
62697;BME280;48761;42.680;23.312;2022-12-07T14:20:39;94488.91;;;9.21;72.23
62697;BME280;48761;42.680;23.312;2022-12-07T14:23:23;94475.38;;;8.99;72.91
62697;BME280;48761;42.680;23.312;2022-12-07T14:25:51;94496.03;;;9.20;72.50
62697;BME280;48761;42.680;23.312;2022-12-07T14:28:34;94498.38;;;9.12;72.34
62697;BME280;48761;42.680;23.312;2022-12-07T14:31:02;94478.88;;;8.87;73.11
62697;BME280;48761;42.680;23.312;2022-12-07T14:33:28;94501.34;;;8.94;73.53
62697;BME280;48761;42.680;23.312;2022-12-07T14:35:55;94494.00;;;9.11;73.04
62697;BME280;48761;42.680;23.312;2022-12-07T14:38:21;94501.03;;;9.12;72.90
62697;BME280;48761;42.680;23.312;2022-12-07T14:40:48;94492.34;;;8.83;73.30
62697;BME280;48761;42.680;23.312;2022-12-07T14:43:16;94497.09;;;8.78;73.95
62697;BME280;48761;42.680;23.312;2022-12-07T14:45:43;94494.78;;;8.73;74.37
62697;BME280;48761;42.680;23.312;2022-12-07T14:48:13;94495.63;;;8.74;74.70
62697;BME280;48761;42.680;23.312;2022-12-07T14:50:42;94487.78;;;8.59;75.43
62697;BME280;48761;42.680;23.312;2022-12-07T14:53:13;94493.50;;;8.66;76.20
62697;BME280;48761;42.680;23.312;2022-12-07T14:55:39;94481.91;;;8.54;75.60
62697;BME280;48761;42.680;23.312;2022-12-07T14:58:06;94498.63;;;8.55;75.48
62697;BME280;48761;42.680;23.312;2022-12-07T15:00:32;94483.28;;;8.47;75.33
62697;BME280;48761;42.680;23.312;2022-12-07T15:02:58;94498.53;;;8.56;75.59
62697;BME280;48761;42.680;23.312;2022-12-07T15:05:24;94501.81;;;8.47;75.94
62697;BME280;48761;42.680;23.312;2022-12-07T15:07:50;94506.88;;;8.50;76.02
62697;BME280;48761;42.680;23.312;2022-12-07T15:10:28;94472.00;;;8.30;75.97
62697;BME280;48761;42.680;23.312;2022-12-07T15:12:54;94500.22;;;8.44;76.36
62697;BME280;48761;42.680;23.312;2022-12-07T15:15:20;94507.72;;;8.37;76.27
62697;BME280;48761;42.680;23.312;2022-12-07T15:17:46;94507.19;;;8.32;76.22